sensor_id;sensor_type;location;lat;lon;timestamp;P1;durP1;ratioP1;P2;durP2;ratioP2
50880;SDS011;36858;47.832;-3.800;2022-12-07T00:01:20;14.10;;;9.30;;
50880;SDS011;36858;47.832;-3.800;2022-12-07T00:03:53;14.57;;;9.73;;
50880;SDS011;36858;47.832;-3.800;2022-12-07T00:06:24;13.83;;;9.47;;
50880;SDS011;36858;47.832;-3.800;2022-12-07T00:08:51;13.47;;;9.63;;
50880;SDS011;36858;47.832;-3.800;2022-12-07T00:11:19;14.13;;;9.30;;
50880;SDS011;36858;47.832;-3.800;2022-12-07T00:13:53;13.30;;;8.70;;
50880;SDS011;36858;47.832;-3.800;2022-12-07T00:16:22;14.07;;;8.27;;
50880;SDS011;36858;47.832;-3.800;2022-12-07T00:18:52;14.80;;;9.80;;
50880;SDS011;36858;47.832;-3.800;2022-12-07T00:21:23;12.40;;;8.63;;
50880;SDS011;36858;47.832;-3.800;2022-12-07T00:23:51;13.97;;;9.63;;
50880;SDS011;36858;47.832;-3.800;2022-12-07T00:26:23;13.30;;;8.83;;
50880;SDS011;36858;47.832;-3.800;2022-12-07T00:28:52;13.37;;;9.30;;
50880;SDS011;36858;47.832;-3.800;2022-12-07T00:31:25;13.83;;;8.23;;
50880;SDS011;36858;47.832;-3.800;2022-12-07T00:33:54;12.03;;;8.43;;
50880;SDS011;36858;47.832;-3.800;2022-12-07T00:36:23;12.37;;;8.90;;
50880;SDS011;36858;47.832;-3.800;2022-12-07T00:38:53;11.10;;;8.27;;
50880;SDS011;36858;47.832;-3.800;2022-12-07T00:41:22;12.50;;;8.03;;
50880;SDS011;36858;47.832;-3.800;2022-12-07T00:43:50;13.03;;;9.23;;
50880;SDS011;36858;47.832;-3.800;2022-12-07T00:46:18;15.50;;;9.07;;
50880;SDS011;36858;47.832;-3.800;2022-12-07T00:48:46;13.67;;;8.43;;
50880;SDS011;36858;47.832;-3.800;2022-12-07T00:51:14;14.87;;;9.87;;
50880;SDS011;36858;47.832;-3.800;2022-12-07T00:53:42;13.37;;;9.33;;
50880;SDS011;36858;47.832;-3.800;2022-12-07T00:56:13;13.03;;;9.13;;
50880;SDS011;36858;47.832;-3.800;2022-12-07T00:58:49;14.57;;;9.63;;
50880;SDS011;36858;47.832;-3.800;2022-12-07T01:01:24;16.50;;;9.80;;
50880;SDS011;36858;47.832;-3.800;2022-12-07T01:03:52;15.00;;;9.63;;
50880;SDS011;36858;47.832;-3.800;2022-12-07T01:06:19;15.33;;;9.40;;
50880;SDS011;36858;47.832;-3.800;2022-12-07T01:08:47;12.57;;;8.80;;
50880;SDS011;36858;47.832;-3.800;2022-12-07T01:11:15;15.80;;;10.07;;
50880;SDS011;36858;47.832;-3.800;2022-12-07T01:13:44;14.70;;;9.27;;
50880;SDS011;36858;47.832;-3.800;2022-12-07T01:16:12;13.30;;;9.33;;
50880;SDS011;36858;47.832;-3.800;2022-12-07T01:18:41;13.03;;;8.93;;
50880;SDS011;36858;47.832;-3.800;2022-12-07T01:21:16;16.17;;;10.00;;
50880;SDS011;36858;47.832;-3.800;2022-12-07T01:23:44;14.20;;;9.47;;
50880;SDS011;36858;47.832;-3.800;2022-12-07T01:26:12;13.47;;;9.30;;
50880;SDS011;36858;47.832;-3.800;2022-12-07T01:28:41;14.53;;;9.37;;
50880;SDS011;36858;47.832;-3.800;2022-12-07T01:31:10;16.77;;;10.20;;
50880;SDS011;36858;47.832;-3.800;2022-12-07T01:33:42;14.27;;;8.90;;
50880;SDS011;36858;47.832;-3.800;2022-12-07T01:36:14;15.40;;;10.00;;
50880;SDS011;36858;47.832;-3.800;2022-12-07T01:38:45;13.80;;;9.40;;
50880;SDS011;36858;47.832;-3.800;2022-12-07T01:41:14;13.70;;;9.57;;
50880;SDS011;36858;47.832;-3.800;2022-12-07T01:44:25;14.03;;;8.93;;
50880;SDS011;36858;47.832;-3.800;2022-12-07T01:46:36;13.23;;;8.57;;
50880;SDS011;36858;47.832;-3.800;2022-12-07T01:49:08;13.30;;;9.97;;
50880;SDS011;36858;47.832;-3.800;2022-12-07T01:51:39;16.40;;;10.20;;
50880;SDS011;36858;47.832;-3.800;2022-12-07T01:54:08;13.60;;;8.93;;
50880;SDS011;36858;47.832;-3.800;2022-12-07T01:56:36;15.40;;;10.40;;
50880;SDS011;36858;47.832;-3.800;2022-12-07T01:59:04;12.77;;;9.40;;
50880;SDS011;36858;47.832;-3.800;2022-12-07T02:01:31;13.87;;;9.20;;
50880;SDS011;36858;47.832;-3.800;2022-12-07T02:03:58;14.17;;;9.57;;
50880;SDS011;36858;47.832;-3.800;2022-12-07T02:06:25;15.23;;;10.10;;
50880;SDS011;36858;47.832;-3.800;2022-12-07T02:08:52;15.47;;;9.97;;
50880;SDS011;36858;47.832;-3.800;2022-12-07T02:11:20;16.60;;;9.70;;
50880;SDS011;36858;47.832;-3.800;2022-12-07T02:13:47;12.93;;;9.00;;
50880;SDS011;36858;47.832;-3.800;2022-12-07T02:21:51;13.63;;;9.20;;
50880;SDS011;36858;47.832;-3.800;2022-12-07T02:35:18;15.30;;;9.17;;
50880;SDS011;36858;47.832;-3.800;2022-12-07T02:37:51;15.23;;;10.07;;
50880;SDS011;36858;47.832;-3.800;2022-12-07T02:45:51;14.73;;;8.87;;
50880;SDS011;36858;47.832;-3.800;2022-12-07T02:48:20;13.00;;;8.87;;
50880;SDS011;36858;47.832;-3.800;2022-12-07T02:50:51;14.63;;;9.73;;
50880;SDS011;36858;47.832;-3.800;2022-12-07T02:59:17;12.63;;;9.13;;
50880;SDS011;36858;47.832;-3.800;2022-12-07T03:04:45;14.07;;;9.10;;
50880;SDS011;36858;47.832;-3.800;2022-12-07T03:15:53;14.07;;;9.40;;
50880;SDS011;36858;47.832;-3.800;2022-12-07T03:18:25;14.37;;;9.83;;
50880;SDS011;36858;47.832;-3.800;2022-12-07T03:20:57;13.50;;;8.13;;
50880;SDS011;36858;47.832;-3.800;2022-12-07T03:23:35;13.33;;;8.90;;
50880;SDS011;36858;47.832;-3.800;2022-12-07T03:26:04;12.43;;;8.30;;
50880;SDS011;36858;47.832;-3.800;2022-12-07T03:28:34;15.37;;;9.67;;
50880;SDS011;36858;47.832;-3.800;2022-12-07T03:31:05;14.53;;;8.73;;
50880;SDS011;36858;47.832;-3.800;2022-12-07T03:33:41;13.03;;;8.13;;
50880;SDS011;36858;47.832;-3.800;2022-12-07T03:36:26;14.70;;;9.43;;
50880;SDS011;36858;47.832;-3.800;2022-12-07T03:41:56;13.30;;;8.43;;
50880;SDS011;36858;47.832;-3.800;2022-12-07T03:44:26;10.83;;;7.53;;
50880;SDS011;36858;47.832;-3.800;2022-12-07T03:52:23;12.43;;;7.93;;
50880;SDS011;36858;47.832;-3.800;2022-12-07T03:55:17;13.37;;;8.27;;
50880;SDS011;36858;47.832;-3.800;2022-12-07T03:57:57;10.17;;;7.73;;
50880;SDS011;36858;47.832;-3.800;2022-12-07T04:00:27;12.87;;;8.57;;
50880;SDS011;36858;47.832;-3.800;2022-12-07T04:02:55;10.83;;;7.60;;
50880;SDS011;36858;47.832;-3.800;2022-12-07T04:05:22;11.53;;;7.80;;
50880;SDS011;36858;47.832;-3.800;2022-12-07T04:07:50;11.70;;;7.73;;
50880;SDS011;36858;47.832;-3.800;2022-12-07T04:10:17;11.13;;;8.03;;
50880;SDS011;36858;47.832;-3.800;2022-12-07T04:12:44;11.23;;;7.60;;
50880;SDS011;36858;47.832;-3.800;2022-12-07T04:15:11;12.33;;;7.93;;
50880;SDS011;36858;47.832;-3.800;2022-12-07T04:17:38;10.87;;;7.87;;
50880;SDS011;36858;47.832;-3.800;2022-12-07T04:20:06;12.10;;;7.47;;
50880;SDS011;36858;47.832;-3.800;2022-12-07T04:22:33;10.87;;;7.47;;
50880;SDS011;36858;47.832;-3.800;2022-12-07T04:25:00;11.73;;;8.00;;
50880;SDS011;36858;47.832;-3.800;2022-12-07T04:27:27;11.47;;;7.47;;
50880;SDS011;36858;47.832;-3.800;2022-12-07T04:29:54;9.17;;;6.80;;
50880;SDS011;36858;47.832;-3.800;2022-12-07T04:32:22;10.53;;;7.47;;
50880;SDS011;36858;47.832;-3.800;2022-12-07T04:34:50;10.10;;;7.37;;
50880;SDS011;36858;47.832;-3.800;2022-12-07T04:37:21;10.67;;;7.43;;
50880;SDS011;36858;47.832;-3.800;2022-12-07T04:39:48;11.00;;;7.20;;
50880;SDS011;36858;47.832;-3.800;2022-12-07T04:42:15;7.80;;;6.07;;
50880;SDS011;36858;47.832;-3.800;2022-12-07T04:44:43;10.87;;;6.67;;
50880;SDS011;36858;47.832;-3.800;2022-12-07T04:47:10;8.20;;;6.50;;
50880;SDS011;36858;47.832;-3.800;2022-12-07T04:49:38;9.57;;;6.90;;
50880;SDS011;36858;47.832;-3.800;2022-12-07T04:52:04;10.10;;;6.57;;
50880;SDS011;36858;47.832;-3.800;2022-12-07T04:54:31;11.13;;;7.27;;
50880;SDS011;36858;47.832;-3.800;2022-12-07T04:56:58;7.90;;;5.80;;
50880;SDS011;36858;47.832;-3.800;2022-12-07T04:59:25;10.83;;;7.50;;
50880;SDS011;36858;47.832;-3.800;2022-12-07T05:01:52;11.93;;;7.60;;
50880;SDS011;36858;47.832;-3.800;2022-12-07T05:04:19;10.50;;;6.70;;
50880;SDS011;36858;47.832;-3.800;2022-12-07T05:06:46;8.60;;;6.43;;
50880;SDS011;36858;47.832;-3.800;2022-12-07T05:09:13;10.03;;;7.00;;
50880;SDS011;36858;47.832;-3.800;2022-12-07T05:11:40;9.30;;;6.17;;
50880;SDS011;36858;47.832;-3.800;2022-12-07T05:14:17;9.27;;;6.43;;
50880;SDS011;36858;47.832;-3.800;2022-12-07T05:16:46;8.00;;;5.70;;
50880;SDS011;36858;47.832;-3.800;2022-12-07T05:19:15;10.03;;;6.33;;
50880;SDS011;36858;47.832;-3.800;2022-12-07T05:21:43;9.77;;;6.70;;
50880;SDS011;36858;47.832;-3.800;2022-12-07T05:24:10;9.97;;;6.83;;
50880;SDS011;36858;47.832;-3.800;2022-12-07T05:26:39;9.37;;;6.50;;
50880;SDS011;36858;47.832;-3.800;2022-12-07T05:29:07;9.03;;;6.03;;
50880;SDS011;36858;47.832;-3.800;2022-12-07T05:31:34;10.03;;;6.97;;
50880;SDS011;36858;47.832;-3.800;2022-12-07T05:34:01;8.60;;;6.53;;
50880;SDS011;36858;47.832;-3.800;2022-12-07T05:36:28;9.30;;;5.73;;
50880;SDS011;36858;47.832;-3.800;2022-12-07T05:38:57;11.40;;;7.00;;
50880;SDS011;36858;47.832;-3.800;2022-12-07T05:41:24;9.13;;;6.40;;
50880;SDS011;36858;47.832;-3.800;2022-12-07T05:44:10;9.60;;;6.10;;
50880;SDS011;36858;47.832;-3.800;2022-12-07T05:46:37;10.13;;;6.67;;
50880;SDS011;36858;47.832;-3.800;2022-12-07T05:49:04;8.77;;;6.40;;
50880;SDS011;36858;47.832;-3.800;2022-12-07T05:51:30;9.47;;;6.33;;
50880;SDS011;36858;47.832;-3.800;2022-12-07T05:53:57;9.37;;;5.73;;
50880;SDS011;36858;47.832;-3.800;2022-12-07T05:56:24;9.77;;;6.40;;
50880;SDS011;36858;47.832;-3.800;2022-12-07T05:58:53;9.90;;;6.27;;
50880;SDS011;36858;47.832;-3.800;2022-12-07T06:01:39;7.80;;;5.80;;
50880;SDS011;36858;47.832;-3.800;2022-12-07T06:04:07;7.30;;;5.93;;
50880;SDS011;36858;47.832;-3.800;2022-12-07T06:06:34;10.07;;;6.13;;
50880;SDS011;36858;47.832;-3.800;2022-12-07T06:09:01;8.67;;;6.00;;
50880;SDS011;36858;47.832;-3.800;2022-12-07T06:11:28;9.57;;;6.13;;
50880;SDS011;36858;47.832;-3.800;2022-12-07T06:14:13;9.17;;;6.00;;
50880;SDS011;36858;47.832;-3.800;2022-12-07T06:16:40;9.33;;;6.20;;
50880;SDS011;36858;47.832;-3.800;2022-12-07T06:19:08;10.87;;;6.90;;
50880;SDS011;36858;47.832;-3.800;2022-12-07T06:21:35;10.53;;;6.80;;
50880;SDS011;36858;47.832;-3.800;2022-12-07T06:24:02;8.10;;;5.93;;
50880;SDS011;36858;47.832;-3.800;2022-12-07T06:26:29;8.27;;;5.87;;
50880;SDS011;36858;47.832;-3.800;2022-12-07T06:28:56;7.60;;;5.63;;
50880;SDS011;36858;47.832;-3.800;2022-12-07T06:31:23;10.07;;;6.17;;
50880;SDS011;36858;47.832;-3.800;2022-12-07T06:33:50;8.33;;;5.93;;
50880;SDS011;36858;47.832;-3.800;2022-12-07T06:36:17;8.33;;;5.37;;
50880;SDS011;36858;47.832;-3.800;2022-12-07T06:38:52;8.23;;;5.80;;
50880;SDS011;36858;47.832;-3.800;2022-12-07T06:41:19;8.47;;;6.23;;
50880;SDS011;36858;47.832;-3.800;2022-12-07T06:43:47;9.10;;;6.30;;
50880;SDS011;36858;47.832;-3.800;2022-12-07T06:46:20;10.40;;;6.73;;
50880;SDS011;36858;47.832;-3.800;2022-12-07T06:48:48;8.73;;;5.20;;
50880;SDS011;36858;47.832;-3.800;2022-12-07T06:51:15;8.60;;;5.53;;
50880;SDS011;36858;47.832;-3.800;2022-12-07T06:53:42;8.40;;;5.73;;
50880;SDS011;36858;47.832;-3.800;2022-12-07T06:56:09;8.50;;;5.73;;
50880;SDS011;36858;47.832;-3.800;2022-12-07T06:58:37;8.60;;;5.80;;
50880;SDS011;36858;47.832;-3.800;2022-12-07T07:01:08;9.13;;;6.37;;
50880;SDS011;36858;47.832;-3.800;2022-12-07T07:03:38;9.53;;;5.97;;
50880;SDS011;36858;47.832;-3.800;2022-12-07T07:06:06;7.73;;;5.77;;
50880;SDS011;36858;47.832;-3.800;2022-12-07T07:08:34;9.63;;;6.03;;
50880;SDS011;36858;47.832;-3.800;2022-12-07T07:11:02;9.40;;;5.60;;
50880;SDS011;36858;47.832;-3.800;2022-12-07T07:13:29;9.07;;;5.73;;
50880;SDS011;36858;47.832;-3.800;2022-12-07T07:15:56;10.37;;;6.43;;
50880;SDS011;36858;47.832;-3.800;2022-12-07T07:18:23;7.87;;;5.90;;
50880;SDS011;36858;47.832;-3.800;2022-12-07T07:20:50;9.10;;;5.90;;
50880;SDS011;36858;47.832;-3.800;2022-12-07T07:23:18;6.93;;;5.23;;
50880;SDS011;36858;47.832;-3.800;2022-12-07T07:25:45;7.73;;;5.60;;
50880;SDS011;36858;47.832;-3.800;2022-12-07T07:28:13;8.37;;;6.37;;
50880;SDS011;36858;47.832;-3.800;2022-12-07T07:30:40;7.63;;;5.23;;
50880;SDS011;36858;47.832;-3.800;2022-12-07T07:33:08;7.93;;;5.63;;
50880;SDS011;36858;47.832;-3.800;2022-12-07T07:35:36;9.03;;;6.37;;
50880;SDS011;36858;47.832;-3.800;2022-12-07T07:38:03;8.63;;;6.00;;
50880;SDS011;36858;47.832;-3.800;2022-12-07T07:40:30;8.20;;;5.67;;
50880;SDS011;36858;47.832;-3.800;2022-12-07T07:42:57;8.13;;;5.43;;
50880;SDS011;36858;47.832;-3.800;2022-12-07T07:45:25;10.20;;;5.60;;
50880;SDS011;36858;47.832;-3.800;2022-12-07T07:47:52;8.50;;;6.07;;
50880;SDS011;36858;47.832;-3.800;2022-12-07T07:50:20;7.80;;;5.37;;
50880;SDS011;36858;47.832;-3.800;2022-12-07T07:52:47;9.13;;;5.10;;
50880;SDS011;36858;47.832;-3.800;2022-12-07T07:55:14;7.07;;;5.40;;
50880;SDS011;36858;47.832;-3.800;2022-12-07T07:57:41;10.47;;;6.03;;
50880;SDS011;36858;47.832;-3.800;2022-12-07T08:00:12;9.20;;;6.13;;
50880;SDS011;36858;47.832;-3.800;2022-12-07T08:02:42;11.50;;;6.73;;
50880;SDS011;36858;47.832;-3.800;2022-12-07T08:05:10;8.30;;;6.03;;
50880;SDS011;36858;47.832;-3.800;2022-12-07T08:07:37;9.90;;;7.03;;
50880;SDS011;36858;47.832;-3.800;2022-12-07T08:10:05;10.33;;;7.20;;
50880;SDS011;36858;47.832;-3.800;2022-12-07T08:12:37;10.20;;;7.77;;
50880;SDS011;36858;47.832;-3.800;2022-12-07T08:15:28;9.67;;;7.53;;
50880;SDS011;36858;47.832;-3.800;2022-12-07T08:17:57;8.40;;;6.43;;
50880;SDS011;36858;47.832;-3.800;2022-12-07T08:20:24;10.80;;;7.93;;
50880;SDS011;36858;47.832;-3.800;2022-12-07T08:22:51;14.23;;;9.03;;
50880;SDS011;36858;47.832;-3.800;2022-12-07T08:25:18;11.60;;;8.87;;
50880;SDS011;36858;47.832;-3.800;2022-12-07T08:27:45;11.30;;;9.17;;
50880;SDS011;36858;47.832;-3.800;2022-12-07T08:30:12;13.17;;;8.17;;
50880;SDS011;36858;47.832;-3.800;2022-12-07T08:32:39;10.30;;;8.00;;
50880;SDS011;36858;47.832;-3.800;2022-12-07T08:35:06;11.57;;;8.63;;
50880;SDS011;36858;47.832;-3.800;2022-12-07T08:37:34;10.53;;;8.37;;
50880;SDS011;36858;47.832;-3.800;2022-12-07T08:40:01;12.33;;;9.33;;
50880;SDS011;36858;47.832;-3.800;2022-12-07T08:42:30;11.27;;;7.63;;
50880;SDS011;36858;47.832;-3.800;2022-12-07T08:45:07;9.13;;;7.00;;
50880;SDS011;36858;47.832;-3.800;2022-12-07T08:47:40;10.37;;;7.63;;
50880;SDS011;36858;47.832;-3.800;2022-12-07T08:50:09;10.67;;;7.33;;
50880;SDS011;36858;47.832;-3.800;2022-12-07T08:52:36;9.47;;;7.37;;
50880;SDS011;36858;47.832;-3.800;2022-12-07T08:55:03;9.57;;;6.87;;
50880;SDS011;36858;47.832;-3.800;2022-12-07T08:57:32;10.30;;;7.43;;
50880;SDS011;36858;47.832;-3.800;2022-12-07T09:00:00;11.13;;;7.00;;
50880;SDS011;36858;47.832;-3.800;2022-12-07T09:02:28;9.93;;;7.30;;
50880;SDS011;36858;47.832;-3.800;2022-12-07T09:04:55;11.20;;;7.47;;
50880;SDS011;36858;47.832;-3.800;2022-12-07T09:07:22;15.97;;;8.97;;
50880;SDS011;36858;47.832;-3.800;2022-12-07T09:09:49;16.03;;;8.53;;
50880;SDS011;36858;47.832;-3.800;2022-12-07T09:12:16;13.83;;;8.40;;
50880;SDS011;36858;47.832;-3.800;2022-12-07T09:14:43;13.20;;;8.13;;
50880;SDS011;36858;47.832;-3.800;2022-12-07T09:17:11;14.67;;;9.03;;
50880;SDS011;36858;47.832;-3.800;2022-12-07T09:19:38;12.33;;;8.67;;
50880;SDS011;36858;47.832;-3.800;2022-12-07T09:22:06;13.10;;;7.83;;
50880;SDS011;36858;47.832;-3.800;2022-12-07T09:24:34;12.03;;;8.53;;
50880;SDS011;36858;47.832;-3.800;2022-12-07T09:27:01;12.93;;;9.20;;
50880;SDS011;36858;47.832;-3.800;2022-12-07T09:29:28;15.20;;;9.17;;
50880;SDS011;36858;47.832;-3.800;2022-12-07T09:31:55;14.50;;;8.90;;
50880;SDS011;36858;47.832;-3.800;2022-12-07T09:34:22;21.03;;;10.07;;
50880;SDS011;36858;47.832;-3.800;2022-12-07T09:36:49;16.67;;;10.83;;
50880;SDS011;36858;47.832;-3.800;2022-12-07T09:39:16;16.43;;;9.53;;
50880;SDS011;36858;47.832;-3.800;2022-12-07T09:41:43;14.70;;;9.07;;
50880;SDS011;36858;47.832;-3.800;2022-12-07T09:44:12;12.97;;;7.43;;
50880;SDS011;36858;47.832;-3.800;2022-12-07T09:46:42;10.63;;;7.00;;
50880;SDS011;36858;47.832;-3.800;2022-12-07T09:49:14;9.87;;;6.63;;
50880;SDS011;36858;47.832;-3.800;2022-12-07T09:51:44;8.73;;;6.63;;
50880;SDS011;36858;47.832;-3.800;2022-12-07T09:54:15;9.70;;;5.83;;
50880;SDS011;36858;47.832;-3.800;2022-12-07T09:56:43;11.53;;;6.67;;
50880;SDS011;36858;47.832;-3.800;2022-12-07T09:59:13;10.60;;;6.97;;
50880;SDS011;36858;47.832;-3.800;2022-12-07T10:01:45;10.47;;;6.23;;
50880;SDS011;36858;47.832;-3.800;2022-12-07T10:04:15;9.10;;;5.90;;
50880;SDS011;36858;47.832;-3.800;2022-12-07T10:06:46;9.13;;;7.17;;
50880;SDS011;36858;47.832;-3.800;2022-12-07T10:09:15;11.13;;;7.13;;
50880;SDS011;36858;47.832;-3.800;2022-12-07T10:12:05;9.23;;;6.33;;
50880;SDS011;36858;47.832;-3.800;2022-12-07T10:14:34;8.67;;;5.53;;
50880;SDS011;36858;47.832;-3.800;2022-12-07T10:17:36;8.67;;;5.63;;
50880;SDS011;36858;47.832;-3.800;2022-12-07T10:25:23;6.40;;;5.13;;
50880;SDS011;36858;47.832;-3.800;2022-12-07T10:27:57;6.73;;;5.83;;
50880;SDS011;36858;47.832;-3.800;2022-12-07T10:30:27;7.43;;;5.57;;
50880;SDS011;36858;47.832;-3.800;2022-12-07T10:32:55;11.67;;;5.97;;
50880;SDS011;36858;47.832;-3.800;2022-12-07T10:35:26;10.27;;;5.77;;
50880;SDS011;36858;47.832;-3.800;2022-12-07T10:37:55;7.47;;;5.30;;
50880;SDS011;36858;47.832;-3.800;2022-12-07T10:43:03;14.67;;;6.60;;
50880;SDS011;36858;47.832;-3.800;2022-12-07T10:48:34;11.43;;;4.90;;
50880;SDS011;36858;47.832;-3.800;2022-12-07T10:51:27;6.43;;;4.70;;
50880;SDS011;36858;47.832;-3.800;2022-12-07T11:05:32;5.50;;;4.17;;
50880;SDS011;36858;47.832;-3.800;2022-12-07T11:08:50;4.97;;;4.00;;
50880;SDS011;36858;47.832;-3.800;2022-12-07T11:11:36;5.93;;;4.17;;
50880;SDS011;36858;47.832;-3.800;2022-12-07T11:37:49;5.57;;;4.03;;
50880;SDS011;36858;47.832;-3.800;2022-12-07T11:40:36;7.30;;;3.97;;
50880;SDS011;36858;47.832;-3.800;2022-12-07T11:45:58;6.57;;;3.93;;
50880;SDS011;36858;47.832;-3.800;2022-12-07T11:48:46;6.83;;;4.13;;
50880;SDS011;36858;47.832;-3.800;2022-12-07T11:51:20;7.33;;;4.40;;
50880;SDS011;36858;47.832;-3.800;2022-12-07T11:53:58;7.20;;;4.07;;
50880;SDS011;36858;47.832;-3.800;2022-12-07T11:56:28;4.83;;;3.63;;
50880;SDS011;36858;47.832;-3.800;2022-12-07T11:58:57;4.27;;;3.30;;
50880;SDS011;36858;47.832;-3.800;2022-12-07T12:04:01;4.70;;;3.33;;
50880;SDS011;36858;47.832;-3.800;2022-12-07T12:06:32;5.57;;;4.00;;
50880;SDS011;36858;47.832;-3.800;2022-12-07T12:11:53;6.70;;;4.00;;
50880;SDS011;36858;47.832;-3.800;2022-12-07T12:15:00;4.70;;;3.17;;
50880;SDS011;36858;47.832;-3.800;2022-12-07T12:20:25;5.07;;;3.33;;
50880;SDS011;36858;47.832;-3.800;2022-12-07T12:25:51;5.20;;;3.47;;
50880;SDS011;36858;47.832;-3.800;2022-12-07T12:28:24;3.67;;;3.10;;
50880;SDS011;36858;47.832;-3.800;2022-12-07T12:31:09;4.60;;;3.43;;
50880;SDS011;36858;47.832;-3.800;2022-12-07T12:33:49;4.10;;;2.80;;
50880;SDS011;36858;47.832;-3.800;2022-12-07T12:36:28;3.53;;;2.73;;
50880;SDS011;36858;47.832;-3.800;2022-12-07T12:39:12;4.13;;;3.07;;
50880;SDS011;36858;47.832;-3.800;2022-12-07T12:47:00;4.47;;;2.90;;
50880;SDS011;36858;47.832;-3.800;2022-12-07T12:51:55;5.83;;;3.10;;
50880;SDS011;36858;47.832;-3.800;2022-12-07T12:57:29;3.80;;;2.93;;
50880;SDS011;36858;47.832;-3.800;2022-12-07T12:59:58;3.60;;;3.17;;
50880;SDS011;36858;47.832;-3.800;2022-12-07T13:02:27;3.60;;;2.73;;
50880;SDS011;36858;47.832;-3.800;2022-12-07T13:15:46;3.60;;;3.00;;
50880;SDS011;36858;47.832;-3.800;2022-12-07T13:23:37;6.70;;;3.67;;
50880;SDS011;36858;47.832;-3.800;2022-12-07T13:26:33;4.53;;;3.33;;
50880;SDS011;36858;47.832;-3.800;2022-12-07T13:31:40;5.20;;;3.47;;
50880;SDS011;36858;47.832;-3.800;2022-12-07T13:37:18;3.57;;;3.10;;
50880;SDS011;36858;47.832;-3.800;2022-12-07T13:39:54;6.53;;;3.87;;
50880;SDS011;36858;47.832;-3.800;2022-12-07T13:42:29;4.63;;;3.57;;
50880;SDS011;36858;47.832;-3.800;2022-12-07T13:45:00;3.70;;;3.23;;
50880;SDS011;36858;47.832;-3.800;2022-12-07T13:47:49;4.47;;;3.00;;
50880;SDS011;36858;47.832;-3.800;2022-12-07T13:50:26;4.70;;;3.37;;
50880;SDS011;36858;47.832;-3.800;2022-12-07T13:52:58;4.93;;;3.00;;
50880;SDS011;36858;47.832;-3.800;2022-12-07T13:55:27;3.53;;;2.80;;
50880;SDS011;36858;47.832;-3.800;2022-12-07T13:57:55;3.70;;;2.67;;
50880;SDS011;36858;47.832;-3.800;2022-12-07T14:00:23;3.73;;;3.00;;
50880;SDS011;36858;47.832;-3.800;2022-12-07T14:05:27;2.97;;;2.63;;
50880;SDS011;36858;47.832;-3.800;2022-12-07T14:07:58;4.30;;;2.67;;
50880;SDS011;36858;47.832;-3.800;2022-12-07T14:10:33;4.17;;;3.20;;
50880;SDS011;36858;47.832;-3.800;2022-12-07T14:13:27;5.90;;;3.07;;
50880;SDS011;36858;47.832;-3.800;2022-12-07T14:15:58;3.77;;;2.60;;
50880;SDS011;36858;47.832;-3.800;2022-12-07T14:18:26;4.33;;;2.63;;
50880;SDS011;36858;47.832;-3.800;2022-12-07T14:23:38;3.97;;;2.80;;
50880;SDS011;36858;47.832;-3.800;2022-12-07T14:26:15;3.20;;;2.47;;
50880;SDS011;36858;47.832;-3.800;2022-12-07T14:28:45;3.10;;;2.27;;
50880;SDS011;36858;47.832;-3.800;2022-12-07T14:31:14;3.33;;;2.67;;
50880;SDS011;36858;47.832;-3.800;2022-12-07T14:33:58;2.87;;;2.30;;
50880;SDS011;36858;47.832;-3.800;2022-12-07T14:36:25;3.27;;;2.17;;
50880;SDS011;36858;47.832;-3.800;2022-12-07T14:38:52;3.67;;;2.43;;
50880;SDS011;36858;47.832;-3.800;2022-12-07T14:41:22;3.47;;;2.43;;
50880;SDS011;36858;47.832;-3.800;2022-12-07T14:44:09;4.50;;;2.30;;
50880;SDS011;36858;47.832;-3.800;2022-12-07T14:46:58;5.33;;;2.40;;
50880;SDS011;36858;47.832;-3.800;2022-12-07T14:49:45;3.57;;;1.97;;
50880;SDS011;36858;47.832;-3.800;2022-12-07T14:52:16;2.37;;;2.17;;
50880;SDS011;36858;47.832;-3.800;2022-12-07T14:55:11;2.53;;;2.23;;
50880;SDS011;36858;47.832;-3.800;2022-12-07T14:57:40;3.13;;;2.30;;
50880;SDS011;36858;47.832;-3.800;2022-12-07T15:00:08;3.00;;;2.30;;
50880;SDS011;36858;47.832;-3.800;2022-12-07T15:02:36;3.77;;;2.50;;
50880;SDS011;36858;47.832;-3.800;2022-12-07T15:05:03;2.93;;;2.03;;
50880;SDS011;36858;47.832;-3.800;2022-12-07T15:07:33;4.63;;;2.33;;
50880;SDS011;36858;47.832;-3.800;2022-12-07T15:10:00;2.97;;;2.53;;
50880;SDS011;36858;47.832;-3.800;2022-12-07T15:12:27;3.07;;;2.43;;
50880;SDS011;36858;47.832;-3.800;2022-12-07T15:14:55;2.77;;;2.17;;
50880;SDS011;36858;47.832;-3.800;2022-12-07T15:17:21;4.47;;;2.17;;
50880;SDS011;36858;47.832;-3.800;2022-12-07T15:19:57;3.87;;;2.47;;
50880;SDS011;36858;47.832;-3.800;2022-12-07T15:22:24;4.07;;;2.07;;
50880;SDS011;36858;47.832;-3.800;2022-12-07T15:24:51;7.00;;;2.40;;
50880;SDS011;36858;47.832;-3.800;2022-12-07T15:27:18;3.43;;;2.13;;
50880;SDS011;36858;47.832;-3.800;2022-12-07T15:29:45;3.90;;;2.27;;
50880;SDS011;36858;47.832;-3.800;2022-12-07T15:32:12;4.00;;;2.70;;
50880;SDS011;36858;47.832;-3.800;2022-12-07T15:34:39;3.07;;;2.30;;
50880;SDS011;36858;47.832;-3.800;2022-12-07T15:37:07;3.80;;;2.57;;
50880;SDS011;36858;47.832;-3.800;2022-12-07T15:39:35;4.57;;;2.30;;
50880;SDS011;36858;47.832;-3.800;2022-12-07T15:42:03;3.53;;;2.70;;
50880;SDS011;36858;47.832;-3.800;2022-12-07T15:44:30;3.20;;;2.20;;
50880;SDS011;36858;47.832;-3.800;2022-12-07T15:47:16;3.23;;;2.40;;
50880;SDS011;36858;47.832;-3.800;2022-12-07T15:49:43;3.40;;;2.00;;
50880;SDS011;36858;47.832;-3.800;2022-12-07T15:52:10;3.20;;;2.23;;
50880;SDS011;36858;47.832;-3.800;2022-12-07T15:54:37;3.50;;;2.50;;
50880;SDS011;36858;47.832;-3.800;2022-12-07T15:57:04;2.77;;;2.20;;
50880;SDS011;36858;47.832;-3.800;2022-12-07T15:59:31;6.30;;;2.57;;
50880;SDS011;36858;47.832;-3.800;2022-12-07T16:01:58;3.50;;;2.17;;
50880;SDS011;36858;47.832;-3.800;2022-12-07T16:04:26;5.50;;;2.87;;
50880;SDS011;36858;47.832;-3.800;2022-12-07T16:06:54;4.67;;;2.67;;
50880;SDS011;36858;47.832;-3.800;2022-12-07T16:09:22;3.50;;;2.50;;
50880;SDS011;36858;47.832;-3.800;2022-12-07T16:11:49;5.13;;;3.20;;
50880;SDS011;36858;47.832;-3.800;2022-12-07T16:14:16;4.60;;;3.23;;
50880;SDS011;36858;47.832;-3.800;2022-12-07T16:16:43;8.83;;;3.60;;
50880;SDS011;36858;47.832;-3.800;2022-12-07T16:19:10;6.83;;;3.47;;
50880;SDS011;36858;47.832;-3.800;2022-12-07T16:21:38;6.60;;;3.67;;
50880;SDS011;36858;47.832;-3.800;2022-12-07T16:24:05;9.10;;;4.23;;
50880;SDS011;36858;47.832;-3.800;2022-12-07T16:26:33;8.40;;;3.80;;
50880;SDS011;36858;47.832;-3.800;2022-12-07T16:29:00;5.47;;;3.83;;
50880;SDS011;36858;47.832;-3.800;2022-12-07T16:31:27;6.60;;;4.03;;
50880;SDS011;36858;47.832;-3.800;2022-12-07T16:33:55;9.13;;;4.03;;
50880;SDS011;36858;47.832;-3.800;2022-12-07T16:36:23;7.07;;;3.80;;
50880;SDS011;36858;47.832;-3.800;2022-12-07T16:39:11;15.13;;;5.50;;
50880;SDS011;36858;47.832;-3.800;2022-12-07T16:41:38;12.37;;;4.63;;
50880;SDS011;36858;47.832;-3.800;2022-12-07T16:44:06;10.30;;;5.10;;
50880;SDS011;36858;47.832;-3.800;2022-12-07T16:46:35;9.50;;;5.77;;
50880;SDS011;36858;47.832;-3.800;2022-12-07T16:49:03;10.30;;;5.53;;
50880;SDS011;36858;47.832;-3.800;2022-12-07T16:51:30;9.97;;;5.37;;
50880;SDS011;36858;47.832;-3.800;2022-12-07T16:53:58;10.47;;;7.23;;
50880;SDS011;36858;47.832;-3.800;2022-12-07T16:56:25;33.47;;;20.03;;
50880;SDS011;36858;47.832;-3.800;2022-12-07T16:58:53;32.90;;;19.23;;
50880;SDS011;36858;47.832;-3.800;2022-12-07T17:01:21;21.10;;;13.20;;
50880;SDS011;36858;47.832;-3.800;2022-12-07T17:03:49;37.97;;;22.27;;
50880;SDS011;36858;47.832;-3.800;2022-12-07T17:06:18;41.47;;;25.67;;
50880;SDS011;36858;47.832;-3.800;2022-12-07T17:08:48;48.20;;;27.83;;
50880;SDS011;36858;47.832;-3.800;2022-12-07T17:11:17;94.77;;;50.73;;
50880;SDS011;36858;47.832;-3.800;2022-12-07T17:13:46;51.47;;;29.73;;